Time;durP1;ratioP1;P1;durP2;ratioP2;P2;SDS_P1;SDS_P2;PMS_P1;PMS_P2;Temp;Humidity;BMP_temperature;BMP_pressure;BME280_temperature;BME280_humidity;BME280_pressure;Samples;Min_cycle;Max_cycle;Signal;HPM_P1;HPM_P2
2023/02/09 00:00:17;;;;;;;14.47;10.53;;;;;;;-3.17;84.25;150565.00;5056498;28;20457;-80
2023/02/09 00:02:45;;;;;;;16.27;10.33;;;;;;;-3.14;84.13;150572.66;5011541;28;20465;-80
2023/02/09 00:05:12;;;;;;;15.50;10.47;;;;;;;-3.19;84.00;150559.88;5026562;28;20561;-80
2023/02/09 00:07:38;;;;;;;16.13;10.10;;;;;;;-3.10;83.67;150582.94;5059509;28;20504;-80
2023/02/09 00:10:07;;;;;;;19.50;10.63;;;;;;;-3.21;83.42;150556.06;5021031;28;20463;-81
2023/02/09 00:15:18;;;;;;;16.30;10.20;;;;;;;-3.29;83.68;150534.31;5028617;28;20456;-80
2023/02/09 00:17:44;;;;;;;16.77;10.07;;;;;;;-3.25;83.44;150544.50;5061780;28;20550;-80
2023/02/09 00:20:11;;;;;;;14.40;9.83;;;;;;;-3.33;84.08;150525.31;5031787;28;20449;-80
2023/02/09 00:22:38;;;;;;;16.80;11.13;;;;;;;-3.36;84.16;150517.66;5030898;28;20489;-80
2023/02/09 00:25:07;;;;;;;14.00;9.70;;;;;;;-3.35;84.25;150518.94;5016684;28;20867;-81
2023/02/09 00:27:34;;;;;;;18.63;11.40;;;;;;;-3.38;84.29;150512.53;5032177;28;20448;-80
2023/02/09 00:30:03;;;;;;;19.93;11.53;;;;;;;-3.34;84.30;150521.50;5047201;28;20518;-80
2023/02/09 00:32:31;;;;;;;16.23;10.23;;;;;;;-3.36;84.33;150517.66;5028944;28;20467;-80
2023/02/09 00:34:57;;;;;;;16.13;9.03;;;;;;;-3.36;84.61;150516.41;5030177;28;20459;-80
2023/02/09 00:37:24;;;;;;;14.27;9.87;;;;;;;-3.43;84.69;150498.47;5039364;28;20522;-80
2023/02/09 00:39:51;;;;;;;16.10;10.47;;;;;;;-3.35;84.15;150518.94;5029560;28;20447;-80
2023/02/09 00:42:20;;;;;;;12.97;9.27;;;;;;;-3.39;84.21;150508.72;5026786;28;20585;-80
2023/02/09 00:44:46;;;;;;;16.73;11.07;;;;;;;-3.38;84.30;150511.25;5031300;28;20778;-80
2023/02/09 00:47:14;;;;;;;16.70;10.70;;;;;;;-3.50;84.52;150481.88;5029491;28;20465;-80
2023/02/09 00:49:41;;;;;;;14.33;10.20;;;;;;;-3.56;86.13;150465.22;5027710;28;20840;-80
2023/02/09 00:52:08;;;;;;;17.40;10.47;;;;;;;-3.59;85.41;150457.53;5017110;28;20937;-80
2023/02/09 00:54:34;;;;;;;18.37;10.53;;;;;;;-3.58;86.01;150460.09;5029647;28;20565;-80
2023/02/09 00:57:04;;;;;;;18.27;10.53;;;;;;;-3.62;85.90;150449.84;5009745;28;20473;-80
2023/02/09 00:59:33;;;;;;;16.27;11.00;;;;;;;-3.64;85.78;150444.75;5027480;28;20430;-80
2023/02/09 01:02:00;;;;;;;17.30;10.87;;;;;;;-3.67;85.78;150437.06;5034748;28;20441;-80
2023/02/09 01:04:27;;;;;;;16.50;10.77;;;;;;;-3.76;86.83;150416.59;5028921;28;20522;-80
2023/02/09 01:06:54;;;;;;;19.10;11.30;;;;;;;-3.76;86.73;150416.59;5032703;28;20919;-80
2023/02/09 01:09:20;;;;;;;17.10;10.60;;;;;;;-3.81;86.89;150403.81;5015923;28;20754;-80
2023/02/09 01:11:47;;;;;;;14.33;9.70;;;;;;;-3.82;87.47;150400.00;5032615;28;20445;-80
2023/02/09 01:14:14;;;;;;;16.90;9.73;;;;;;;-3.85;87.44;150393.63;5021879;28;20409;-80
2023/02/09 01:16:42;;;;;;;16.10;10.17;;;;;;;-3.86;87.78;150391.03;5025138;28;20525;-80
2023/02/09 01:19:11;;;;;;;17.47;10.27;;;;;;;-3.87;87.08;150387.22;5039365;28;20471;-80
2023/02/09 01:21:38;;;;;;;15.23;10.40;;;;;;;-3.91;87.70;150376.97;5003630;28;20482;-80
2023/02/09 01:24:05;;;;;;;17.07;11.13;;;;;;;-3.91;87.97;150378.25;5027523;28;20551;-80
2023/02/09 01:26:32;;;;;;;17.20;11.43;;;;;;;-3.96;87.44;150365.47;5029091;28;20453;-80
2023/02/09 01:28:59;;;;;;;20.40;12.73;;;;;;;-3.94;88.22;150369.28;5030309;28;20538;-80
2023/02/09 01:31:27;;;;;;;22.80;12.87;;;;;;;-3.96;88.22;150364.19;5030089;28;20558;-80
2023/02/09 01:33:57;;;;;;;17.60;13.93;;;;;;;-3.95;88.30;150368.06;5049072;28;20450;-80
2023/02/09 01:36:26;;;;;;;23.10;12.43;;;;;;;-3.89;87.75;150383.34;5019168;28;21244;-80
2023/02/09 01:38:54;;;;;;;19.70;12.17;;;;;;;-3.84;87.50;150396.16;5029399;28;20953;-80
2023/02/09 01:41:21;;;;;;;18.83;12.23;;;;;;;-3.92;88.15;150375.69;5030539;28;21013;-80
2023/02/09 01:43:57;;;;;;;16.07;11.20;;;;;;;-3.96;87.61;150365.47;5029954;28;21041;-80
2023/02/09 01:46:25;;;;;;;20.57;13.10;;;;;;;-4.00;87.86;150355.28;5028987;28;20460;-79
2023/02/09 01:48:58;;;;;;;19.13;11.40;;;;;;;-3.99;87.94;150356.50;5030822;28;20944;-80
2023/02/09 01:51:25;;;;;;;17.83;11.10;;;;;;;-3.95;87.96;150366.75;5059374;28;20511;-79
2023/02/09 01:53:52;;;;;;;17.77;10.50;;;;;;;-3.86;86.80;150391.03;5029051;28;21065;-80
2023/02/09 01:56:26;;;;;;;17.10;10.20;;;;;;;-3.85;86.87;150392.31;5013369;28;20444;-74
2023/02/09 01:58:52;;;;;;;16.40;9.97;;;;;;;-3.87;86.33;150388.50;5028669;28;20839;-74
2023/02/09 02:01:19;;;;;;;18.07;11.57;;;;;;;-3.85;87.38;150393.63;5027253;28;20894;-75
2023/02/09 02:03:46;;;;;;;16.10;10.43;;;;;;;-3.93;86.99;150371.88;5028548;28;20578;-74
2023/02/09 02:06:15;;;;;;;17.97;11.20;;;;;;;-4.01;87.29;150352.69;5026438;28;20576;-74
2023/02/09 02:08:46;;;;;;;15.37;10.27;;;;;;;-3.99;87.62;150356.50;5027844;28;20448;-73
2023/02/09 02:11:13;;;;;;;18.67;12.50;;;;;;;-4.04;88.50;150345.03;5024806;28;20635;-74
2023/02/09 02:13:39;;;;;;;18.17;12.07;;;;;;;-4.14;88.58;150318.16;5030569;28;20442;-73
2023/02/09 02:16:15;;;;;;;21.53;14.40;;;;;;;-4.22;89.47;150299.00;5041225;28;21120;-74
2023/02/09 02:18:54;;;;;;;19.30;11.63;;;;;;;-4.22;90.25;150297.72;5026822;28;20455;-74
2023/02/09 02:21:58;;;;;;;19.20;13.40;;;;;;;-4.25;90.13;150291.31;5017111;28;20555;-74
2023/02/09 02:24:52;;;;;;;17.63;12.43;;;;;;;-4.27;90.64;150286.22;5028164;28;20507;-74
2023/02/09 02:27:30;;;;;;;19.70;11.87;;;;;;;-4.30;90.97;150278.56;5045484;28;20540;-74
2023/02/09 02:30:35;;;;;;;17.53;11.53;;;;;;;-4.30;90.86;150278.56;5027120;28;20465;-74
2023/02/09 02:33:16;;;;;;;16.53;11.00;;;;;;;-4.39;91.25;150255.53;5036963;28;20842;-73
2023/02/09 02:35:47;;;;;;;19.33;13.00;;;;;;;-4.43;91.56;150245.31;5040655;28;20453;-74
2023/02/09 02:38:17;;;;;;;20.80;12.30;;;;;;;-4.42;91.67;150249.13;5026577;28;20976;-74
2023/02/09 02:40:53;;;;;;;20.77;12.80;;;;;;;-4.40;91.91;150253.00;5021861;28;20454;-74
2023/02/09 02:43:23;;;;;;;19.47;13.10;;;;;;;-4.39;92.07;150255.53;5025922;28;20460;-74
2023/02/09 02:45:55;;;;;;;20.60;11.83;;;;;;;-4.45;92.02;150240.22;5027549;28;20434;-74
2023/02/09 02:48:34;;;;;;;22.20;12.90;;;;;;;-4.49;92.38;150229.97;5025066;28;20605;-74
2023/02/09 02:51:03;;;;;;;20.27;12.70;;;;;;;-4.47;91.83;150235.06;5024320;28;20472;-74
2023/02/09 02:53:32;;;;;;;21.27;13.10;;;;;;;-4.50;92.09;150227.44;5027956;28;20599;-74
2023/02/09 02:56:01;;;;;;;19.47;13.00;;;;;;;-4.52;92.30;150222.31;5028524;28;20456;-74
2023/02/09 02:58:29;;;;;;;19.47;12.80;;;;;;;-4.53;91.97;150221.06;5011734;28;20463;-74
2023/02/09 03:00:59;;;;;;;18.07;12.13;;;;;;;-4.56;92.16;150212.09;5021325;28;20544;-73
2023/02/09 03:03:31;;;;;;;18.63;13.50;;;;;;;-4.59;92.33;150204.44;5029463;28;20989;-73
2023/02/09 03:05:59;;;;;;;19.00;12.63;;;;;;;-4.64;92.01;150191.66;5023730;28;20484;-74
2023/02/09 03:08:25;;;;;;;21.23;12.43;;;;;;;-4.67;92.75;150183.97;5029101;28;20547;-73
2023/02/09 03:10:52;;;;;;;18.90;13.30;;;;;;;-4.69;92.37;150178.88;5026764;28;20562;-73
2023/02/09 03:13:37;;;;;;;22.33;13.20;;;;;;;-4.72;92.87;150171.22;5026798;28;20457;-73
2023/02/09 03:16:20;;;;;;;18.63;12.53;;;;;;;-4.76;93.03;150160.97;5028387;28;20440;-73
2023/02/09 03:19:05;;;;;;;18.20;11.87;;;;;;;-4.82;93.42;150145.66;5059332;28;20445;-73
2023/02/09 03:21:39;;;;;;;24.37;13.30;;;;;;;-4.87;93.96;150132.91;5023451;28;20458;-73
2023/02/09 03:24:11;;;;;;;24.47;13.70;;;;;;;-4.92;94.14;150122.66;5025256;28;20792;-73
2023/02/09 03:26:41;;;;;;;21.37;13.03;;;;;;;-4.92;94.51;150121.38;5026848;28;20512;-73
2023/02/09 03:29:08;;;;;;;20.97;12.50;;;;;;;-4.95;94.94;150114.97;5023997;28;20518;-73
2023/02/09 03:31:36;;;;;;;23.27;14.20;;;;;;;-4.95;94.97;150113.75;5025530;28;20587;-73
2023/02/09 03:34:05;;;;;;;20.40;14.27;;;;;;;-4.98;94.56;150106.06;5024580;28;20435;-73
2023/02/09 03:36:33;;;;;;;23.70;13.03;;;;;;;-5.01;93.94;150099.69;5029187;28;20560;-74
2023/02/09 03:39:00;;;;;;;25.53;15.20;;;;;;;-5.03;94.12;150093.31;5024197;28;20452;-73
2023/02/09 03:41:27;;;;;;;25.60;14.60;;;;;;;-5.04;94.76;150092.03;5023688;28;20898;-73
2023/02/09 03:46:38;;;;;;;21.73;13.50;;;;;;;-5.05;94.78;150088.16;5017818;28;20458;-73
2023/02/09 03:49:06;;;;;;;21.70;13.33;;;;;;;-5.11;93.89;150074.09;5029783;28;20465;-73
2023/02/09 03:51:33;;;;;;;26.60;14.30;;;;;;;-5.11;94.46;150074.09;5026629;28;20664;-73
2023/02/09 03:53:59;;;;;;;21.10;13.53;;;;;;;-5.11;94.54;150074.09;5028340;28;20517;-73
2023/02/09 04:04:15;;;;;;;22.57;12.13;;;;;;;-5.09;94.57;150079.25;5026415;28;20954;-73
2023/02/09 04:06:42;;;;;;;23.00;14.27;;;;;;;-5.07;94.53;150083.06;5027266;28;20597;-73
2023/02/09 04:09:09;;;;;;;23.73;14.57;;;;;;;-5.10;94.20;150076.69;5011947;28;20499;-73
2023/02/09 04:11:36;;;;;;;24.57;14.03;;;;;;;-5.07;94.69;150083.06;5063813;28;21060;-73
2023/02/09 04:14:02;;;;;;;23.03;14.27;;;;;;;-5.08;94.77;150081.78;5032149;28;20414;-73
2023/02/09 04:16:29;;;;;;;25.07;14.70;;;;;;;-5.09;94.24;150077.97;5043308;28;20455;-73
2023/02/09 04:18:56;;;;;;;24.70;15.87;;;;;;;-5.12;94.01;150071.59;5029692;28;20525;-73
2023/02/09 04:21:24;;;;;;;22.50;15.20;;;;;;;-5.16;94.63;150061.34;5025317;28;20435;-74
2023/02/09 04:23:51;;;;;;;24.73;15.03;;;;;;;-5.15;95.31;150063.91;5030211;28;20893;-73
2023/02/09 04:26:17;;;;;;;21.67;13.80;;;;;;;-5.15;95.34;150063.91;5027014;28;20446;-73
2023/02/09 04:28:44;;;;;;;25.17;14.30;;;;;;;-5.19;94.50;150053.66;5029699;28;20459;-73
2023/02/09 04:31:11;;;;;;;23.40;15.57;;;;;;;-5.22;94.92;150046.06;5032381;28;20449;-73
2023/02/09 04:33:38;;;;;;;21.50;14.70;;;;;;;-5.21;94.85;150048.56;5027061;28;20563;-73
2023/02/09 04:36:05;;;;;;;24.23;15.83;;;;;;;-5.15;95.79;150063.91;5022306;28;20493;-73
2023/02/09 04:38:34;;;;;;;23.73;15.00;;;;;;;-5.09;95.92;150079.25;5022855;28;20499;-73
2023/02/09 04:41:02;;;;;;;23.93;14.90;;;;;;;-5.12;95.13;150070.31;5026228;28;21085;-73
2023/02/09 04:43:29;;;;;;;21.33;14.30;;;;;;;-5.09;95.58;150079.25;5027174;28;20463;-73
2023/02/09 04:45:56;;;;;;;22.60;13.93;;;;;;;-5.06;96.46;150086.94;5029256;28;20567;-73
2023/02/09 04:48:24;;;;;;;23.83;13.63;;;;;;;-5.06;95.78;150085.63;5030456;28;20432;-73
2023/02/09 04:50:51;;;;;;;23.73;16.00;;;;;;;-4.99;95.74;150103.50;5021184;28;20471;-73
2023/02/09 04:53:18;;;;;;;23.50;15.67;;;;;;;-4.88;95.93;150130.31;5059053;28;20934;-73
2023/02/09 04:55:47;;;;;;;25.37;16.70;;;;;;;-4.83;96.13;150143.09;5019836;28;20470;-73
2023/02/09 05:01:01;;;;;;;24.20;15.70;;;;;;;-4.82;96.51;150146.97;5021711;28;20809;-73
2023/02/09 05:03:27;;;;;;;24.17;14.90;;;;;;;-4.95;94.75;150114.97;5025290;28;20493;-73
2023/02/09 05:05:55;;;;;;;25.77;14.87;;;;;;;-5.09;94.40;150077.97;5041460;28;20479;-73
2023/02/09 05:08:22;;;;;;;28.23;16.30;;;;;;;-5.18;95.46;150054.97;5024257;28;20513;-74
2023/02/09 05:10:52;;;;;;;29.40;15.90;;;;;;;-5.24;95.56;150040.91;5025496;28;20470;-74
2023/02/09 05:13:18;;;;;;;25.50;16.03;;;;;;;-5.27;95.57;150032.00;5054029;28;20445;-74
2023/02/09 05:15:45;;;;;;;26.93;16.80;;;;;;;-5.34;95.53;150014.09;5025709;28;20545;-73
2023/02/09 05:18:12;;;;;;;20.47;14.17;;;;;;;-5.35;96.32;150012.84;5008190;28;20505;-74
2023/02/09 05:20:39;;;;;;;25.77;14.63;;;;;;;-5.36;96.24;150010.28;5022169;28;20528;-74
2023/02/09 05:23:05;;;;;;;27.30;15.03;;;;;;;-5.34;96.48;150015.38;5022553;28;20482;-73
2023/02/09 05:25:32;;;;;;;27.83;16.10;;;;;;;-5.28;96.87;150030.72;5023640;28;20457;-74
2023/02/09 05:28:00;;;;;;;22.77;16.30;;;;;;;-5.28;96.91;150030.72;5022598;28;20909;-74
2023/02/09 05:30:27;;;;;;;22.37;14.77;;;;;;;-5.32;96.64;150020.47;5025949;28;20518;-73
2023/02/09 05:32:54;;;;;;;26.13;16.53;;;;;;;-5.37;96.33;150007.72;5022933;28;20459;-73
2023/02/09 05:35:21;;;;;;;25.03;15.43;;;;;;;-5.35;97.23;150011.56;5009867;28;20425;-74
2023/02/09 05:37:47;;;;;;;27.00;15.73;;;;;;;-5.35;97.17;150012.84;5015318;28;20455;-73
2023/02/09 05:40:14;;;;;;;24.43;16.83;;;;;;;-5.38;97.14;150005.19;5024741;28;20873;-74
2023/02/09 05:42:41;;;;;;;20.47;13.20;;;;;;;-5.41;96.57;149997.53;5025984;28;20461;-74
2023/02/09 05:45:09;;;;;;;21.63;14.93;;;;;;;-5.41;96.74;149997.53;5008593;28;21020;-73
2023/02/09 05:47:36;;;;;;;24.77;14.53;;;;;;;-5.41;96.92;149997.53;5058844;28;20799;-73
2023/02/09 05:50:03;;;;;;;21.83;13.90;;;;;;;-5.45;97.18;149987.28;5029304;28;20495;-73
2023/02/09 05:52:30;;;;;;;23.53;14.83;;;;;;;-5.47;97.50;149982.19;5023542;28;20433;-73
2023/02/09 05:54:57;;;;;;;23.03;14.83;;;;;;;-5.49;96.79;149977.09;5028179;28;20441;-73
2023/02/09 05:57:23;;;;;;;25.40;16.30;;;;;;;-5.54;96.88;149964.31;5011145;28;20499;-73
2023/02/09 05:59:50;;;;;;;23.87;15.77;;;;;;;-5.59;97.18;149952.81;5024827;28;20501;-73
2023/02/09 06:02:18;;;;;;;24.07;15.40;;;;;;;-5.62;97.98;149943.91;5057827;28;20651;-73
2023/02/09 06:04:46;;;;;;;21.80;15.60;;;;;;;-5.63;97.88;149941.31;5035540;28;20452;-72
2023/02/09 06:07:12;;;;;;;26.13;15.13;;;;;;;-5.71;96.97;149920.91;5014865;28;20429;-72
2023/02/09 06:09:39;;;;;;;29.37;16.47;;;;;;;-5.76;97.66;149909.44;5018086;28;20479;-73
2023/02/09 06:12:06;;;;;;;21.10;14.63;;;;;;;-5.77;97.99;149905.63;5007326;28;20896;-72
2023/02/09 06:14:32;;;;;;;25.03;14.93;;;;;;;-5.81;97.83;149895.38;5051767;28;20433;-72
2023/02/09 06:16:59;;;;;;;23.17;15.67;;;;;;;-5.86;97.79;149883.97;5019162;28;20429;-72
2023/02/09 06:19:27;;;;;;;23.40;15.33;;;;;;;-5.86;97.55;149883.97;5027902;28;20438;-73
2023/02/09 06:21:54;;;;;;;22.67;15.60;;;;;;;-5.83;97.76;149890.28;5023386;28;20450;-73
2023/02/09 06:24:21;;;;;;;23.77;14.30;;;;;;;-5.76;98.41;149908.16;5018991;28;20450;-73
2023/02/09 06:26:47;;;;;;;25.43;14.90;;;;;;;-5.70;98.75;149923.47;5019575;28;20544;-73
2023/02/09 06:29:14;;;;;;;24.47;14.80;;;;;;;-5.77;98.51;149906.84;5021602;28;20761;-73
2023/02/09 06:31:41;;;;;;;21.87;13.93;;;;;;;-5.82;98.39;149892.81;5023069;28;20520;-73
2023/02/09 06:34:08;;;;;;;25.17;15.67;;;;;;;-5.81;98.06;149895.38;5021882;28;20438;-73
2023/02/09 06:36:36;;;;;;;22.47;14.40;;;;;;;-5.85;98.36;149886.47;5037618;28;20451;-76
2023/02/09 06:39:06;;;;;;;20.77;14.43;;;;;;;-5.86;98.67;149882.69;5048223;28;20451;-73
2023/02/09 06:41:34;;;;;;;24.17;15.63;;;;;;;-5.86;99.23;149882.69;5018810;28;20450;-73
2023/02/09 06:44:00;;;;;;;26.37;14.90;;;;;;;-5.85;99.17;149886.47;5024338;28;20460;-73
2023/02/09 06:46:28;;;;;;;23.00;14.50;;;;;;;-5.81;99.27;149895.38;5018553;28;20866;-73
2023/02/09 06:48:55;;;;;;;21.77;15.30;;;;;;;-5.81;98.89;149896.66;5022812;28;20429;-73
2023/02/09 06:51:21;;;;;;;23.60;15.50;;;;;;;-5.84;98.72;149889.00;5022868;28;20779;-73
2023/02/09 06:53:49;;;;;;;22.77;15.43;;;;;;;-5.80;98.57;149897.97;5027524;28;20458;-73
2023/02/09 06:56:16;;;;;;;23.40;14.87;;;;;;;-5.77;98.95;149905.63;5008416;28;20435;-73
2023/02/09 06:58:43;;;;;;;22.53;15.67;;;;;;;-5.76;98.96;149908.16;5023349;28;20451;-73
2023/02/09 07:01:11;;;;;;;30.60;15.80;;;;;;;-5.73;99.36;149915.81;5015028;28;20801;-73
2023/02/09 07:03:38;;;;;;;25.07;15.20;;;;;;;-5.68;99.40;149928.56;5033501;28;20987;-73
2023/02/09 07:06:06;;;;;;;24.00;14.83;;;;;;;-5.65;99.09;149936.22;5024363;28;20500;-73
2023/02/09 07:08:33;;;;;;;33.93;15.70;;;;;;;-5.59;99.15;149952.81;5014731;28;20828;-73
2023/02/09 07:11:03;;;;;;;23.90;15.47;;;;;;;-5.45;99.66;149987.28;5017526;28;20998;-73
2023/02/09 07:13:30;;;;;;;27.43;17.50;;;;;;;-5.31;99.16;150021.75;5016393;28;20436;-74
2023/02/09 07:15:57;;;;;;;21.87;14.83;;;;;;;-5.16;99.20;150060.09;5023052;28;20429;-73
2023/02/09 07:18:24;;;;;;;25.13;15.77;;;;;;;-4.98;98.85;150107.31;5021760;28;20466;-73
2023/02/09 07:20:55;;;;;;;28.53;17.40;;;;;;;-4.76;98.24;150160.97;5022801;28;20425;-73
2023/02/09 07:23:21;;;;;;;26.70;16.80;;;;;;;-4.56;97.40;150212.09;5027345;28;20553;-73
2023/02/09 07:25:48;;;;;;;28.20;17.37;;;;;;;-4.26;97.02;150287.50;5026929;28;20509;-73
2023/02/09 07:28:19;;;;;;;30.87;17.43;;;;;;;-4.15;95.05;150316.88;5025027;28;20478;-73
2023/02/09 07:30:47;;;;;;;28.80;16.50;;;;;;;-4.01;95.48;150352.69;5020913;28;20420;-74
2023/02/09 07:33:13;;;;;;;31.93;19.17;;;;;;;-3.85;94.87;150393.63;5022862;28;20430;-74
2023/02/09 07:35:40;;;;;;;28.30;17.07;;;;;;;-3.81;93.27;150402.53;5021412;28;20809;-73
2023/02/09 07:38:07;;;;;;;41.13;17.77;;;;;;;-3.67;93.73;150437.06;5025425;28;20456;-74
2023/02/09 07:40:33;;;;;;;30.33;18.50;;;;;;;-3.43;93.23;150498.47;5037480;28;20438;-74
2023/02/09 07:43:00;;;;;;;28.50;17.80;;;;;;;-3.12;93.29;150577.78;5026357;28;20491;-74
2023/02/09 07:45:28;;;;;;;27.40;16.87;;;;;;;-2.92;91.52;150629.00;5026981;28;20784;-74
2023/02/09 07:47:55;;;;;;;28.60;19.10;;;;;;;-2.80;91.19;150659.69;5027298;28;20454;-74
2023/02/09 07:50:21;;;;;;;25.07;17.30;;;;;;;-2.61;90.63;150708.34;5040802;28;20484;-75
2023/02/09 07:52:48;;;;;;;27.20;17.90;;;;;;;-2.61;88.92;150707.06;5007216;28;20488;-74
2023/02/09 07:55:15;;;;;;;26.83;18.87;;;;;;;-2.58;89.77;150714.75;5020487;28;20439;-74
2023/02/09 07:57:43;;;;;;;27.20;18.87;;;;;;;-2.51;89.43;150733.94;5020215;28;20462;-74
2023/02/09 08:00:11;;;;;;;28.20;18.50;;;;;;;-2.46;89.10;150746.72;5018777;28;21039;-74
2023/02/09 08:02:44;;;;;;;23.30;16.20;;;;;;;-2.28;89.07;150791.59;5025956;28;20450;-74
2023/02/09 08:05:14;;;;;;;25.40;17.57;;;;;;;-2.20;88.55;150810.78;5018907;28;20490;-74
2023/02/09 08:07:41;;;;;;;28.30;18.27;;;;;;;-2.18;88.50;150817.19;5025803;28;20462;-74
2023/02/09 08:10:08;;;;;;;28.63;18.90;;;;;;;-2.19;88.65;150813.31;5021048;28;20529;-74
2023/02/09 08:15:20;;;;;;;29.70;18.77;;;;;;;-2.14;88.32;150827.41;5025955;28;20457;-74
2023/02/09 08:17:49;;;;;;;26.00;17.63;;;;;;;-2.10;87.35;150837.69;5029950;28;20458;-73
2023/02/09 08:20:18;;;;;;;30.77;19.70;;;;;;;-2.04;87.20;150853.00;5030678;28;20949;-74
2023/02/09 08:22:48;;;;;;;27.87;19.13;;;;;;;-2.12;87.06;150831.28;5006355;28;20561;-74
2023/02/09 08:25:16;;;;;;;27.03;18.67;;;;;;;-2.07;88.17;150844.06;5019786;28;20478;-74
2023/02/09 08:27:43;;;;;;;31.07;20.00;;;;;;;-2.11;86.88;150833.81;5021131;28;20553;-74
2023/02/09 08:30:12;;;;;;;28.20;19.40;;;;;;;-2.03;87.37;150855.59;5033035;28;20565;-74
2023/02/09 08:32:39;;;;;;;30.93;19.40;;;;;;;-2.11;87.40;150835.09;5020954;28;20487;-74
2023/02/09 08:35:08;;;;;;;28.00;19.50;;;;;;;-2.06;87.30;150847.91;5021777;28;21915;-74
2023/02/09 08:37:34;;;;;;;31.13;19.47;;;;;;;-2.07;88.43;150845.38;5020010;28;22458;-74
2023/02/09 08:40:01;;;;;;;35.40;21.10;;;;;;;-1.98;88.05;150867.09;5016855;28;20972;-74
2023/02/09 08:42:28;;;;;;;28.27;19.00;;;;;;;-1.93;88.37;150879.91;5027770;28;20479;-74
2023/02/09 08:44:55;;;;;;;32.83;19.70;;;;;;;-1.85;88.18;150900.41;5034656;28;20450;-74
2023/02/09 08:47:22;;;;;;;35.87;20.60;;;;;;;-1.91;88.64;150885.06;5019459;28;20459;-74
2023/02/09 08:49:49;;;;;;;34.20;20.20;;;;;;;-1.92;87.54;150883.78;5024529;28;20455;-74
2023/02/09 08:52:18;;;;;;;28.10;18.30;;;;;;;-1.88;88.07;150894.00;5041796;28;20475;-74
2023/02/09 08:54:44;;;;;;;30.33;19.83;;;;;;;-1.87;87.27;150895.28;5025040;28;20630;-74
2023/02/09 08:57:11;;;;;;;44.47;22.10;;;;;;;-1.86;88.07;150897.88;5024601;28;20525;-74
2023/02/09 08:59:38;;;;;;;33.10;20.53;;;;;;;-1.87;87.08;150896.59;5019575;28;20457;-74
2023/02/09 09:02:05;;;;;;;30.77;19.60;;;;;;;-1.79;87.83;150915.78;5019133;28;20518;-74
2023/02/09 09:04:32;;;;;;;27.90;19.43;;;;;;;-1.75;89.05;150926.06;5019758;28;21742;-74
2023/02/09 09:06:59;;;;;;;30.57;20.40;;;;;;;-1.62;87.76;150959.38;5025535;28;20519;-74
2023/02/09 09:09:27;;;;;;;31.07;19.73;;;;;;;-1.43;87.66;151006.78;5024334;28;20538;-74
2023/02/09 09:11:54;;;;;;;34.43;21.97;;;;;;;-1.46;86.54;150999.09;5019449;28;20486;-74
2023/02/09 09:14:20;;;;;;;27.17;19.97;;;;;;;-1.44;86.76;151005.50;5022150;28;20454;-74
2023/02/09 09:16:47;;;;;;;37.10;20.97;;;;;;;-1.42;86.71;151010.63;5024731;28;20465;-74
2023/02/09 09:19:14;;;;;;;31.33;20.93;;;;;;;-1.36;86.79;151026.00;5025704;28;21020;-74
2023/02/09 09:21:40;;;;;;;27.50;18.73;;;;;;;-1.12;86.17;151084.97;5019822;28;20980;-74
2023/02/09 09:24:07;;;;;;;29.97;21.60;;;;;;;-1.23;86.30;151058.03;5024373;28;20517;-74
2023/02/09 09:26:35;;;;;;;32.70;20.40;;;;;;;-1.14;86.37;151079.84;5023072;28;20799;-74
2023/02/09 09:29:02;;;;;;;34.27;20.57;;;;;;;-1.04;86.49;151106.75;5025703;28;20455;-74
2023/02/09 09:31:32;;;;;;;26.93;19.93;;;;;;;-1.03;85.14;151109.28;5025601;28;20478;-73
2023/02/09 09:33:58;;;;;;;39.13;21.70;;;;;;;-1.06;85.97;151100.34;5024481;28;20448;-74
2023/02/09 09:36:25;;;;;;;27.90;20.13;;;;;;;-1.08;86.60;151095.19;5025725;28;20987;-74
2023/02/09 09:38:52;;;;;;;32.60;21.40;;;;;;;-1.15;86.42;151078.56;5041390;28;20448;-74
2023/02/09 09:41:22;;;;;;;33.83;21.30;;;;;;;-1.16;86.95;151075.97;5023175;28;20434;-74
2023/02/09 09:43:50;;;;;;;30.87;21.10;;;;;;;-1.15;87.34;151077.25;5021711;28;20490;-74
2023/02/09 09:46:20;;;;;;;31.83;20.03;;;;;;;-1.10;87.95;151090.06;5021405;28;20454;-74
2023/02/09 09:48:49;;;;;;;31.43;20.17;;;;;;;-1.10;87.64;151090.06;5018383;28;20455;-74
2023/02/09 09:51:20;;;;;;;29.90;18.90;;;;;;;-1.06;87.70;151101.59;5023021;28;20446;-73
2023/02/09 09:53:49;;;;;;;28.67;19.73;;;;;;;-1.04;87.78;151105.47;5024422;28;20791;-74
2023/02/09 09:56:19;;;;;;;30.53;20.47;;;;;;;-1.05;87.67;151102.88;5025638;28;20448;-74
2023/02/09 09:58:47;;;;;;;26.90;19.33;;;;;;;-1.05;86.99;151104.19;5007868;28;20992;-74
2023/02/09 10:01:17;;;;;;;34.20;21.50;;;;;;;-1.08;86.44;151095.19;5023132;28;20451;-74
2023/02/09 10:03:44;;;;;;;30.50;20.40;;;;;;;-1.01;87.62;151113.16;5025469;28;20450;-74
2023/02/09 10:06:15;;;;;;;27.30;20.33;;;;;;;-0.91;87.60;151138.78;5023894;28;20542;-74
2023/02/09 10:08:43;;;;;;;31.20;20.53;;;;;;;-0.93;86.92;151133.69;5021109;28;20481;-74
2023/02/09 10:11:12;;;;;;;29.33;18.43;;;;;;;-0.90;87.39;151142.63;5007710;28;20469;-74
2023/02/09 10:13:43;;;;;;;29.90;19.80;;;;;;;-0.85;87.50;151154.19;5019322;28;20486;-74
2023/02/09 10:16:17;;;;;;;31.73;20.60;;;;;;;-0.81;87.52;151165.72;5024078;28;20497;-74
2023/02/09 10:18:44;;;;;;;34.97;21.63;;;;;;;-0.78;87.17;151172.13;5018200;28;20473;-74
2023/02/09 10:21:12;;;;;;;29.37;19.87;;;;;;;-0.72;84.90;151187.53;5018955;28;20534;-74
2023/02/09 10:23:41;;;;;;;30.77;20.60;;;;;;;-0.69;85.01;151195.25;5023778;28;20441;-74
2023/02/09 10:26:20;;;;;;;28.30;20.77;;;;;;;-0.45;83.57;151256.75;5019582;28;20773;-74
2023/02/09 10:28:48;;;;;;;26.20;19.03;;;;;;;-0.41;83.22;151265.75;5022909;28;20450;-74
2023/02/09 10:31:23;;;;;;;28.20;19.03;;;;;;;-0.40;83.48;151269.63;5018171;28;20463;-74
2023/02/09 10:33:54;;;;;;;30.70;20.97;;;;;;;-0.30;83.06;151293.97;5025256;28;20612;-74
2023/02/09 10:36:27;;;;;;;27.50;18.37;;;;;;;-0.09;82.74;151347.88;5005780;28;20613;-74
2023/02/09 10:39:04;;;;;;;32.07;20.27;;;;;;;0.25;80.60;151435.13;5024578;28;20962;-74
2023/02/09 10:41:32;;;;;;;24.80;18.53;;;;;;;0.28;80.14;151441.53;5022264;28;20454;-74
2023/02/09 10:43:59;;;;;;;31.40;20.03;;;;;;;0.34;79.19;151458.25;5018657;28;20455;-74
2023/02/09 10:46:27;;;;;;;30.10;19.23;;;;;;;0.29;79.26;151444.13;5022897;28;20462;-74
2023/02/09 10:48:54;;;;;;;29.30;19.80;;;;;;;0.17;79.09;151413.28;5019750;28;20465;-74
2023/02/09 10:51:27;;;;;;;28.37;18.97;;;;;;;0.28;79.54;151441.53;5017711;28;20772;-74
2023/02/09 10:54:00;;;;;;;28.47;19.60;;;;;;;0.24;79.28;151431.28;5018641;28;20479;-74
2023/02/09 10:56:29;;;;;;;31.37;19.50;;;;;;;0.16;78.96;151410.75;5023164;28;20579;-74
2023/02/09 10:59:00;;;;;;;29.60;18.67;;;;;;;0.22;78.66;151426.13;5017710;28;20554;-74
2023/02/09 11:01:30;;;;;;;28.53;19.80;;;;;;;0.20;79.98;151421.00;5002076;28;20475;-74
2023/02/09 11:04:00;;;;;;;26.07;19.57;;;;;;;0.31;79.64;151449.25;5019264;28;20458;-74
2023/02/09 11:06:28;;;;;;;30.83;17.63;;;;;;;0.36;79.26;151462.09;5023154;28;21254;-74
2023/02/09 11:08:59;;;;;;;35.07;22.13;;;;;;;0.22;79.77;151426.13;5053749;28;20465;-74
2023/02/09 11:11:31;;;;;;;30.33;20.77;;;;;;;0.32;80.72;151451.84;5020439;28;20467;-74
2023/02/09 11:13:59;;;;;;;33.77;19.70;;;;;;;0.39;79.37;151469.78;5032585;28;20489;-74
2023/02/09 11:16:36;;;;;;;28.93;20.17;;;;;;;0.58;79.53;151519.81;5024153;28;20918;-74
2023/02/09 11:19:11;;;;;;;28.90;22.37;;;;;;;0.52;78.83;151504.47;5033423;28;20449;-74
2023/02/09 11:21:50;;;;;;;32.33;20.93;;;;;;;0.40;79.79;151473.63;5021197;28;20506;-74
2023/02/09 11:24:23;;;;;;;34.03;20.47;;;;;;;0.33;80.65;151454.38;5017537;28;20452;-74
2023/02/09 11:26:53;;;;;;;29.37;20.27;;;;;;;0.55;79.32;151512.16;5023726;28;20459;-74
2023/02/09 11:29:28;;;;;;;27.60;18.47;;;;;;;0.66;78.06;151537.84;5023814;28;20782;-74
2023/02/09 11:32:20;;;;;;;28.87;19.03;;;;;;;0.66;78.65;151537.84;5020494;28;20444;-74
2023/02/09 11:35:01;;;;;;;31.13;19.10;;;;;;;0.72;78.65;151554.50;5002341;28;20484;-74